Briefing drone pour Malesherbes

Rechercher une autre localisation

Conditions de vol :


Nous sommes le : Dimanche 19 septembre 2021
Il est 07:33 UTC (09:33 LT)

Lever de soleil : 05:06 UTC (07:06 LT)
Coucher de soleil : 18:21 UTC (20:21 LT)

Météo

L'essentiel des conditions de vol

VIGILANCE MÉTÉO FRANCE - Loiret (45)
Vigilance Jaune : Orages / Pluie-inondation
CARTES DES FRONTS
METAR de LFPM
LFPM 190700Z AUTO 35004KT CAVOK 15/13 Q1011

Date d'émission: 19/09/2021
Heure d'émission: 07:00 UTC
Vent: 350° pour 4 KT (7 km/h)
Visibilité horizontale: > 10 km
Plafond : Plafond et visibilité OK (CAVOK)
Température: 15 °C
Point de rosée: 13 °C
Humidité: 88%
Pression (QNH): 1011 hPa
Prévision 24h pour Melun (20 km)
Vent : 308° pour 3 KT (9 km/h)
Temperature Maxi: 14 °C
Temperature Min: 14 °C
Humidité : 94%
Condition : Légère pluie



Warning: count(): Parameter must be an array or an object that implements Countable in /homepages/6/d509196549/htdocs/droneoxygene/briefing.php on line 743
WEBCAM POUR MALESHERBES

Réglementation

Voler en sécurité

CARTES AERONAUTIQUE 1/500.000
CARTES VAC (LFPM)
SUP AIP




Chargement des AIP...
NOTAM (MALESHERBES + Terrain à proximité / FIR )




Chargement des NOTAMS...
CONTACT PREFECTURE 45


Avertissement : Les données mises à disposition sont indicatives. Oxygène Drone ne pourra être tenu responsable de dégâts causés aux biens et aux personnes.